createdAt,value
2022-10-21T00:00:19.252Z,13.80
2022-10-21T00:02:46.910Z,13.68
2022-10-21T00:05:14.286Z,13.63
2022-10-21T00:07:41.171Z,13.55
2022-10-21T00:10:09.200Z,13.27
2022-10-21T00:12:37.323Z,13.70
2022-10-21T00:15:06.432Z,13.95
2022-10-21T00:17:36.245Z,13.98
2022-10-21T00:20:05.521Z,13.40
2022-10-21T00:22:32.313Z,13.85
2022-10-21T00:24:59.312Z,13.82
2022-10-21T00:27:26.466Z,13.82
2022-10-21T00:29:53.305Z,13.60
2022-10-21T00:32:20.081Z,14.10
2022-10-21T00:34:47.413Z,14.00
2022-10-21T00:37:15.120Z,14.27
2022-10-21T00:39:42.096Z,14.13
2022-10-21T00:42:15.727Z,13.60
2022-10-21T00:44:42.820Z,13.48
2022-10-21T00:47:21.759Z,13.07
2022-10-21T00:49:59.453Z,13.48
2022-10-21T00:52:28.488Z,13.27
2022-10-21T00:54:56.991Z,13.38
2022-10-21T00:57:27.215Z,13.23
2022-10-21T00:59:57.958Z,13.48
2022-10-21T01:02:24.930Z,13.15
2022-10-21T01:04:59.579Z,13.07
2022-10-21T01:07:26.531Z,13.35
2022-10-21T01:09:53.334Z,12.98
2022-10-21T01:12:43.675Z,12.70
2022-10-21T01:15:21.602Z,12.73
2022-10-21T01:17:52.319Z,12.98
2022-10-21T01:23:10.797Z,12.98
2022-10-21T01:26:08.245Z,13.45
2022-10-21T01:28:34.936Z,13.70
2022-10-21T01:31:13.006Z,13.80
2022-10-21T01:33:42.684Z,13.70
2022-10-21T01:36:25.431Z,13.88
2022-10-21T01:39:13.093Z,13.45
2022-10-21T01:41:43.470Z,13.70
2022-10-21T01:44:45.670Z,13.00
2022-10-21T01:47:25.656Z,13.68
2022-10-21T01:49:57.290Z,13.13
2022-10-21T01:52:24.401Z,13.10
2022-10-21T01:54:58.297Z,12.80
2022-10-21T01:57:29.705Z,13.10
2022-10-21T01:59:58.287Z,13.20
2022-10-21T02:02:30.380Z,13.20
2022-10-21T02:04:59.524Z,13.07
2022-10-21T02:07:26.347Z,12.95
2022-10-21T02:09:53.131Z,13.38
2022-10-21T02:12:22.520Z,13.30
2022-10-21T02:14:52.695Z,13.18
2022-10-21T02:17:22.704Z,13.30
2022-10-21T02:19:49.542Z,13.10
2022-10-21T02:22:21.966Z,13.35
2022-10-21T02:24:51.728Z,13.00
2022-10-21T02:27:19.485Z,13.65
2022-10-21T02:29:49.966Z,13.40
2022-10-21T02:32:45.862Z,13.40
2022-10-21T02:35:31.225Z,13.40
2022-10-21T02:38:13.373Z,13.60
2022-10-21T02:40:44.768Z,13.18
2022-10-21T02:43:20.655Z,13.50
2022-10-21T02:45:48.636Z,13.25
2022-10-21T02:48:15.839Z,13.82
2022-10-21T02:50:42.670Z,13.30
2022-10-21T02:53:11.148Z,13.45
2022-10-21T02:55:37.941Z,13.55
2022-10-21T02:58:04.909Z,13.45
2022-10-21T03:00:32.950Z,11.43
2022-10-21T03:03:00.288Z,11.98
2022-10-21T03:05:29.498Z,13.27
2022-10-21T03:07:56.659Z,12.48
2022-10-21T03:10:23.752Z,13.30
2022-10-21T03:12:53.146Z,14.02
2022-10-21T03:15:21.605Z,12.13
2022-10-21T03:17:49.012Z,13.20
2022-10-21T03:20:16.715Z,13.23
2022-10-21T03:22:47.285Z,13.02
2022-10-21T03:25:14.882Z,12.98
2022-10-21T03:31:23.905Z,12.90
2022-10-21T03:34:22.481Z,13.90
2022-10-21T03:37:05.903Z,14.93
2022-10-21T03:39:43.296Z,15.02
2022-10-21T03:42:34.014Z,15.07
2022-10-21T03:46:01.060Z,14.82
2022-10-21T03:48:31.025Z,15.38
2022-10-21T03:51:10.514Z,14.60
2022-10-21T03:53:43.418Z,14.40
2022-10-21T03:56:11.108Z,14.30
2022-10-21T03:58:37.933Z,14.10
2022-10-21T04:01:04.789Z,14.43
2022-10-21T04:03:37.155Z,14.82
2022-10-21T04:06:06.355Z,15.27
2022-10-21T04:08:33.514Z,15.27
2022-10-21T04:11:00.566Z,15.43
2022-10-21T04:13:27.375Z,15.02
2022-10-21T04:15:59.429Z,15.05
2022-10-21T04:18:26.564Z,14.77
2022-10-21T04:20:53.296Z,16.63
2022-10-21T04:23:20.068Z,16.40
2022-10-21T04:25:47.490Z,15.35
2022-10-21T04:28:14.276Z,13.88
2022-10-21T04:30:41.031Z,14.25
2022-10-21T04:33:07.907Z,14.25
2022-10-21T04:35:34.636Z,14.38
2022-10-21T04:38:02.682Z,14.25
2022-10-21T04:40:31.698Z,12.88
2022-10-21T04:42:58.449Z,14.00
2022-10-21T04:45:26.857Z,14.07
2022-10-21T04:47:53.887Z,13.55
2022-10-21T04:50:22.247Z,13.70
2022-10-21T04:55:18.383Z,13.80
2022-10-21T04:57:45.135Z,14.32
2022-10-21T05:00:14.825Z,13.82
2022-10-21T05:02:42.062Z,11.98
2022-10-21T05:05:13.608Z,13.00
2022-10-21T05:07:44.961Z,13.70
2022-10-21T05:10:11.813Z,13.88
2022-10-21T05:12:38.613Z,13.65
2022-10-21T05:15:05.854Z,14.07
2022-10-21T05:17:32.785Z,14.88
2022-10-21T05:19:59.569Z,15.38
2022-10-21T05:22:26.327Z,15.50
2022-10-21T05:24:53.069Z,14.27
2022-10-21T05:27:19.898Z,14.73
2022-10-21T05:29:47.170Z,15.20
2022-10-21T05:32:14.011Z,14.57
2022-10-21T05:34:40.736Z,14.23
2022-10-21T05:37:07.559Z,14.85
2022-10-21T05:39:34.320Z,13.50
2022-10-21T05:42:01.104Z,14.18
2022-10-21T05:44:27.866Z,14.40
2022-10-21T05:46:54.931Z,15.45
2022-10-21T05:49:21.675Z,14.77
2022-10-21T05:51:48.429Z,15.68
2022-10-21T05:54:15.115Z,15.25
2022-10-21T05:56:42.686Z,19.35
2022-10-21T05:59:10.404Z,22.15
2022-10-21T06:01:37.989Z,22.90
2022-10-21T06:04:05.163Z,19.58
2022-10-21T06:06:32.041Z,18.00
2022-10-21T06:08:58.932Z,16.52
2022-10-21T06:11:25.665Z,15.70
2022-10-21T06:13:52.435Z,14.38
2022-10-21T06:16:19.189Z,13.45
2022-10-21T06:18:45.934Z,12.98
2022-10-21T06:21:12.879Z,15.00
2022-10-21T06:23:39.666Z,14.63
2022-10-21T06:26:09.333Z,16.45
2022-10-21T06:28:37.958Z,15.82
2022-10-21T06:31:06.274Z,14.90
2022-10-21T06:33:33.230Z,15.05
2022-10-21T06:36:00.043Z,14.63
2022-10-21T06:38:26.844Z,14.57
2022-10-21T06:41:01.447Z,13.85
2022-10-21T06:43:28.407Z,14.25
2022-10-21T06:46:03.190Z,15.48
2022-10-21T06:48:29.896Z,14.88
2022-10-21T06:51:02.942Z,15.07
2022-10-21T06:53:31.270Z,13.73
2022-10-21T06:56:10.630Z,15.25
2022-10-21T06:58:39.758Z,14.77
2022-10-21T07:01:21.543Z,15.00
2022-10-21T07:03:59.055Z,13.90
2022-10-21T07:06:26.161Z,14.98
2022-10-21T07:09:00.224Z,14.60
2022-10-21T07:11:28.077Z,14.60
2022-10-21T07:13:55.116Z,14.75
2022-10-21T07:16:27.448Z,13.88
2022-10-21T07:18:55.242Z,15.82
2022-10-21T07:21:25.168Z,14.50
2022-10-21T07:23:59.006Z,14.50
2022-10-21T07:26:28.333Z,14.90
2022-10-21T07:28:58.519Z,14.60
2022-10-21T07:31:25.704Z,14.88
2022-10-21T07:33:53.271Z,15.48
2022-10-21T07:36:26.277Z,15.10
2022-10-21T07:38:55.307Z,15.35
2022-10-21T07:41:25.621Z,15.20
2022-10-21T07:43:53.507Z,15.02
2022-10-21T07:46:21.995Z,14.02
2022-10-21T07:48:49.569Z,15.40
2022-10-21T07:51:20.542Z,15.00
2022-10-21T07:56:20.962Z,14.88
2022-10-21T07:58:47.852Z,14.68
2022-10-21T08:01:16.406Z,14.82
2022-10-21T08:03:43.150Z,16.50
2022-10-21T08:06:11.388Z,15.55
2022-10-21T08:08:38.887Z,16.20
2022-10-21T08:11:06.827Z,15.13
2022-10-21T08:13:34.599Z,14.68
2022-10-21T08:16:02.178Z,14.93
2022-10-21T08:18:29.691Z,14.32
2022-10-21T08:20:56.450Z,14.63
2022-10-21T08:23:24.697Z,15.50
2022-10-21T08:25:56.370Z,14.52
2022-10-21T08:28:25.120Z,14.68
2022-10-21T08:30:52.610Z,14.02
2022-10-21T08:33:19.510Z,14.88
2022-10-21T08:35:46.538Z,14.18
2022-10-21T08:38:13.249Z,14.90
2022-10-21T08:40:51.002Z,15.82
2022-10-21T08:43:25.013Z,13.32
2022-10-21T08:46:03.196Z,14.10
2022-10-21T08:48:35.086Z,14.50
2022-10-21T08:51:06.170Z,14.93
2022-10-21T08:53:44.899Z,15.55
2022-10-21T08:56:18.693Z,15.10
2022-10-21T08:58:50.897Z,15.38
2022-10-21T09:01:26.850Z,15.52
2022-10-21T09:04:18.791Z,16.30
2022-10-21T09:07:09.075Z,16.40
2022-10-21T09:10:01.093Z,15.38
2022-10-21T09:12:58.504Z,15.85
2022-10-21T09:16:11.547Z,15.98
2022-10-21T09:18:50.626Z,16.15
2022-10-21T09:21:37.768Z,15.73
2022-10-21T09:24:18.343Z,15.10
2022-10-21T09:26:50.778Z,15.73
2022-10-21T09:29:36.398Z,15.75
2022-10-21T09:32:23.674Z,15.57
2022-10-21T09:35:00.269Z,16.02
2022-10-21T09:37:42.080Z,16.08
2022-10-21T09:40:26.285Z,15.60
2022-10-21T09:42:56.492Z,15.60
2022-10-21T09:45:32.014Z,15.00
2022-10-21T09:48:14.588Z,15.18
2022-10-21T09:50:41.866Z,15.20
2022-10-21T09:53:16.775Z,15.40
2022-10-21T09:55:48.540Z,15.40
2022-10-21T09:58:28.707Z,15.00
2022-10-21T10:00:56.236Z,14.57
2022-10-21T10:03:31.074Z,14.20
2022-10-21T10:05:58.440Z,14.90
2022-10-21T10:08:31.026Z,14.77
2022-10-21T10:11:09.974Z,16.00
2022-10-21T10:13:46.037Z,15.68
2022-10-21T10:16:32.777Z,16.30
2022-10-21T10:19:24.334Z,15.27
2022-10-21T10:22:13.970Z,15.60
2022-10-21T10:24:45.564Z,15.70
2022-10-21T10:27:23.578Z,16.25
2022-10-21T10:29:55.384Z,16.02
2022-10-21T10:32:25.139Z,15.80
2022-10-21T10:35:03.278Z,14.68
2022-10-21T10:37:34.736Z,15.73
2022-10-21T10:40:04.746Z,16.10
2022-10-21T10:42:35.736Z,15.77
2022-10-21T10:45:19.885Z,16.05
2022-10-21T10:47:50.763Z,16.20
2022-10-21T10:53:30.557Z,15.82
2022-10-21T10:56:03.119Z,16.05
2022-10-21T10:58:33.526Z,16.15
2022-10-21T11:01:05.571Z,16.23
2022-10-21T11:03:44.908Z,16.48
2022-10-21T11:06:18.462Z,16.65
2022-10-21T11:08:54.604Z,15.82
2022-10-21T11:11:26.086Z,15.80
2022-10-21T11:13:54.079Z,16.33
2022-10-21T11:17:00.437Z,16.80
2022-10-21T11:19:46.142Z,17.02
2022-10-21T11:22:13.695Z,17.35
2022-10-21T11:24:51.350Z,17.05
2022-10-21T11:27:37.056Z,17.38
2022-10-21T11:30:28.794Z,17.20
2022-10-21T11:33:50.414Z,17.40
2022-10-21T11:36:23.464Z,16.77
2022-10-21T11:38:53.281Z,17.52
2022-10-21T11:41:35.525Z,18.13
2022-10-21T11:44:20.096Z,18.52
2022-10-21T11:46:58.299Z,18.55
2022-10-21T11:49:43.722Z,17.48
2022-10-21T11:52:34.143Z,18.42
2022-10-21T11:55:31.809Z,18.08
2022-10-21T11:58:02.774Z,18.42
2022-10-21T12:00:59.788Z,18.02
2022-10-21T12:03:56.592Z,18.75
2022-10-21T12:06:38.649Z,19.17
2022-10-21T12:09:32.403Z,18.63
2022-10-21T12:12:10.529Z,19.75
2022-10-21T12:15:02.581Z,19.27
2022-10-21T12:17:34.026Z,18.77
2022-10-21T12:20:04.903Z,20.17
2022-10-21T12:25:14.858Z,18.15
2022-10-21T12:27:55.751Z,17.63
2022-10-21T12:33:28.737Z,17.85
2022-10-21T12:36:19.283Z,18.25
2022-10-21T12:38:51.185Z,19.52
2022-10-21T12:41:23.798Z,18.65
2022-10-21T12:44:05.393Z,18.35
2022-10-21T12:46:44.316Z,18.35
2022-10-21T12:49:33.599Z,18.60
2022-10-21T12:52:03.223Z,18.20
2022-10-21T12:54:37.449Z,18.20
2022-10-21T12:57:10.097Z,18.08
2022-10-21T12:59:41.984Z,17.70
2022-10-21T13:02:19.920Z,17.63
2022-10-21T13:04:50.249Z,18.40
2022-10-21T13:07:16.894Z,19.30
2022-10-21T13:09:43.568Z,18.38
2022-10-21T13:12:10.237Z,18.35
2022-10-21T13:14:46.276Z,19.50
2022-10-21T13:17:22.266Z,18.40
2022-10-21T13:20:14.399Z,18.60
2022-10-21T13:22:43.644Z,19.15
2022-10-21T13:25:16.280Z,18.08
2022-10-21T13:27:47.919Z,18.27
2022-10-21T13:30:34.593Z,18.55
2022-10-21T13:33:06.292Z,18.90
2022-10-21T13:35:46.552Z,19.33
2022-10-21T13:38:27.660Z,20.03
2022-10-21T13:41:06.811Z,19.88
2022-10-21T13:43:47.238Z,20.38
2022-10-21T13:46:17.840Z,20.30
2022-10-21T13:48:47.638Z,21.33
2022-10-21T13:51:29.770Z,20.63
2022-10-21T13:54:00.430Z,19.92
2022-10-21T13:56:35.509Z,21.08
2022-10-21T13:59:03.499Z,20.63
2022-10-21T14:01:51.935Z,21.77
2022-10-21T14:04:23.343Z,20.83
2022-10-21T14:06:58.289Z,21.10
2022-10-21T14:09:32.428Z,20.88
2022-10-21T14:12:03.058Z,20.30
2022-10-21T14:14:32.385Z,22.08
2022-10-21T14:17:08.281Z,21.20
2022-10-21T14:19:38.707Z,20.30
2022-10-21T14:24:43.335Z,20.30
2022-10-21T14:29:44.025Z,21.00
2022-10-21T14:32:20.142Z,21.70
2022-10-21T14:34:59.388Z,22.02
2022-10-21T14:37:26.141Z,24.90
2022-10-21T14:39:53.159Z,22.92
2022-10-21T14:42:23.419Z,22.98
2022-10-21T14:44:52.825Z,21.45
2022-10-21T14:47:24.021Z,21.65
2022-10-21T14:49:53.996Z,22.48
2022-10-21T14:52:36.392Z,23.33
2022-10-21T14:55:08.230Z,23.10
2022-10-21T14:57:47.715Z,22.92
2022-10-21T15:00:20.195Z,22.80
2022-10-21T15:02:48.823Z,22.27
2022-10-21T15:05:34.251Z,22.73
2022-10-21T15:08:30.780Z,21.48
2022-10-21T15:10:57.937Z,21.58
2022-10-21T15:13:26.873Z,21.92
2022-10-21T15:15:55.987Z,20.98
2022-10-21T15:18:43.208Z,20.00
2022-10-21T15:21:13.083Z,19.85
2022-10-21T15:23:42.520Z,20.55
2022-10-21T15:26:20.390Z,20.02
2022-10-21T15:28:47.503Z,18.42
2022-10-21T15:31:23.770Z,20.00
2022-10-21T15:33:52.245Z,18.88
2022-10-21T15:36:19.437Z,18.20
2022-10-21T15:38:47.570Z,18.70
2022-10-21T15:41:28.786Z,19.92
2022-10-21T15:44:01.840Z,19.75
2022-10-21T15:46:30.253Z,19.95
2022-10-21T15:48:58.624Z,18.13
2022-10-21T15:51:25.351Z,17.67
2022-10-21T15:53:52.116Z,17.92
2022-10-21T15:56:20.014Z,18.05
2022-10-21T15:58:46.865Z,18.38
2022-10-21T16:01:16.385Z,18.00
2022-10-21T16:03:44.814Z,18.08
2022-10-21T16:06:16.157Z,17.77
2022-10-21T16:08:43.687Z,17.38
2022-10-21T16:11:21.850Z,18.30
2022-10-21T16:13:56.718Z,17.73
2022-10-21T16:16:25.636Z,17.98
2022-10-21T16:18:53.454Z,18.23
2022-10-21T16:21:22.672Z,18.50
2022-10-21T16:23:50.147Z,18.35
2022-10-21T16:26:24.351Z,18.55
2022-10-21T16:28:52.438Z,18.40
2022-10-21T16:31:19.365Z,19.05
2022-10-21T16:33:46.094Z,19.00
2022-10-21T16:36:20.254Z,19.05
2022-10-21T16:38:47.569Z,18.50
2022-10-21T16:41:20.185Z,18.80
2022-10-21T16:43:47.645Z,19.08
2022-10-21T16:46:26.528Z,18.95
2022-10-21T16:48:54.047Z,18.08
2022-10-21T16:51:23.143Z,18.45
2022-10-21T16:53:50.251Z,19.30
2022-10-21T16:56:17.712Z,19.25
2022-10-21T16:58:44.850Z,19.70
2022-10-21T17:01:16.300Z,19.50
2022-10-21T17:03:43.039Z,19.60
2022-10-21T17:06:15.130Z,19.30
2022-10-21T17:08:42.543Z,19.10
2022-10-21T17:11:34.233Z,19.20
2022-10-21T17:14:02.872Z,18.15
2022-10-21T17:16:30.360Z,18.92
2022-10-21T17:18:57.468Z,19.63
2022-10-21T17:21:30.562Z,19.55
2022-10-21T17:23:58.758Z,19.23
2022-10-21T17:26:25.876Z,18.88
2022-10-21T17:28:53.859Z,17.25
2022-10-21T17:31:26.267Z,18.45
2022-10-21T17:33:58.816Z,18.80
2022-10-21T17:36:25.710Z,19.00
2022-10-21T17:38:52.410Z,18.83
2022-10-21T17:41:20.553Z,20.23
2022-10-21T17:43:47.721Z,20.20
2022-10-21T17:46:22.840Z,19.02
2022-10-21T17:48:54.385Z,19.65
2022-10-21T17:51:23.215Z,18.40
2022-10-21T17:53:51.598Z,19.67
2022-10-21T17:56:19.461Z,19.10
2022-10-21T17:58:50.327Z,19.38
2022-10-21T18:01:17.421Z,19.70
2022-10-21T18:03:44.950Z,19.85
2022-10-21T18:06:13.568Z,19.13
2022-10-21T18:08:40.493Z,20.33
2022-10-21T18:11:12.638Z,20.38
2022-10-21T18:13:40.484Z,20.38
2022-10-21T18:16:09.798Z,19.65
2022-10-21T18:18:37.918Z,18.50
2022-10-21T18:21:10.970Z,18.95
2022-10-21T18:23:39.923Z,19.80
2022-10-21T18:26:09.177Z,20.13
2022-10-21T18:28:36.003Z,20.73
2022-10-21T18:31:04.782Z,19.40
2022-10-21T18:33:32.215Z,20.27
2022-10-21T18:36:14.006Z,19.40
2022-10-21T18:38:40.869Z,18.92
2022-10-21T18:41:26.350Z,19.48
2022-10-21T18:43:55.914Z,19.08
2022-10-21T18:46:23.355Z,18.60
2022-10-21T18:48:50.096Z,19.50
2022-10-21T18:51:19.027Z,19.58
2022-10-21T18:53:49.880Z,19.20
2022-10-21T18:56:20.820Z,20.58
2022-10-21T18:58:47.745Z,20.23
2022-10-21T19:01:17.943Z,20.33
2022-10-21T19:03:45.153Z,20.10
2022-10-21T19:06:33.090Z,20.85
2022-10-21T19:09:03.418Z,19.83
2022-10-21T19:11:30.295Z,18.33
2022-10-21T19:13:57.684Z,20.08
2022-10-21T19:16:24.516Z,20.25
2022-10-21T19:18:51.441Z,20.20
2022-10-21T19:21:20.267Z,19.92
2022-10-21T19:23:47.074Z,19.73
2022-10-21T19:26:14.643Z,19.85
2022-10-21T19:28:41.476Z,19.90
2022-10-21T19:31:11.127Z,19.60
2022-10-21T19:33:39.369Z,18.80
2022-10-21T19:36:07.507Z,18.77
2022-10-21T19:38:51.047Z,19.52
2022-10-21T19:41:22.152Z,19.23
2022-10-21T19:43:51.884Z,19.10
2022-10-21T19:46:24.857Z,19.10
2022-10-21T19:48:53.372Z,18.88
2022-10-21T19:51:22.366Z,19.25
2022-10-21T19:53:50.379Z,19.67
2022-10-21T19:56:20.921Z,19.08
2022-10-21T19:58:50.873Z,19.20
2022-10-21T20:01:20.747Z,18.83
2022-10-21T20:03:49.491Z,18.60
